Hawthorne, FL (32640)

4:19 PM EDT on September 01, 2015 (GMT -0400)
Island Grove, Hawthorne | | Change Station
CLOSE
Current Station
Personal Weather Station
Location: Hawthorne, FL
Elevation: 102 ft
Nearby Weather Stations

Elev 102 ft 29.48 °N, 82.06 °W | Updated 5 minutes ago

Partly Cloudy
Partly Cloudy
79.8 °F
Feels Like 85 °F
N
0.0
Wind Variable Wind from South
Gusts 14.0 mph

Today
High -- | Low -- °F
--% Chance of Precip.
Yesterday
High -- | Low -- °F
Precip. -- in
7:05 AM 7:50 PM
Waning Gibbous, 86% visible
Pressure 30.06 in
Visibility 10.0 miles
Clouds Clear
Heat Index 85 °F
Dew Point 76 °F
Humidity 88%
Rainfall 0.00 in
Snow Depth Not available.
UV 2.1 out of 12
Pollen 5.40 out of 12
Air Quality Not available.
Flu Activity Not available.
METAR KGNV 011953Z 25005KT 10SM VCTS CLR 27/24 A3007 RMK AO2 LTG DSNT SE AND NW RAB13E31 TSB15E46 SLP179 P0012 T02720239
Pressure 30.06 in
Visibility 10.0 miles
Clouds Clear
Heat Index 85 °F
Dew Point 76 °F
Humidity 88%
Rainfall 0.00 in
Snow Depth Not available.
UV 2.1 out of 12
Pollen 5.40 out of 12
Air Quality Not available.
Flu Activity Not available.
METAR KGNV 011953Z 25005KT 10SM VCTS CLR 27/24 A3007 RMK AO2 LTG DSNT SE AND NW RAB13E31 TSB15E46 SLP179 P0012 T02720239

10-Day Weather Forecast

×

Almanac

Astronomy

Sep. 01, 2015 Rise Set
Actual Time
Civil Twilight
Nautical Twilight
Astronomical Twilight
Moon
Length of Visible Light
Length of Day
Tomorrow will be .
, % of the Moon is Illuminated

Today's Extremes

State Highs State Lows

Community

WunderPhotos

Upload Photos

1,851,605 photos uploaded!

WunderBlogs® & News

Nearby

Air Quality

  Air Quality AQ Index Pollutant
Not available.

Snow Depth

Station Depth Elevation

Earthquake Activity

City Distance Mag. Time & Date
Minimum magnitude displayed is 2.5.

Coastal Water Temperatures

Place Temperature

Stations

Nearby Weather Stations

Station Location Temp. Windchill Dew Point Humidity Wind Precip. Elev Updated Type